Map

Track Data

SID SEASON NUMBER BASIN SUBBASIN NAME ISO_TIME NATURE LAT LON WMO_WIND WMO_PRES WMO_AGENCY TRACK_TYPE DIST2LAND LANDFALL IFLAG USA_AGENCY USA_ATCF_ID USA_LAT USA_LON USA_RECORD USA_STATUS USA_WIND USA_PRES USA_SSHS USA_R34_NE USA_R34_SE USA_R34_SW USA_R34_NW USA_R50_NE USA_R50_SE USA_R50_SW USA_R50_NW USA_R64_NE USA_R64_SE USA_R64_SW USA_R64_NW USA_POCI USA_ROCI USA_RMW USA_EYE TOKYO_LAT TOKYO_LON TOKYO_GRADE TOKYO_WIND TOKYO_PRES TOKYO_R50_DIR TOKYO_R50_LONG TOKYO_R50_SHORT TOKYO_R30_DIR TOKYO_R30_LONG TOKYO_R30_SHORT TOKYO_LAND CMA_LAT CMA_LON CMA_CAT CMA_WIND CMA_PRES HKO_LAT HKO_LON HKO_CAT HKO_WIND HKO_PRES NEWDELHI_LAT NEWDELHI_LON NEWDELHI_GRADE NEWDELHI_WIND NEWDELHI_PRES NEWDELHI_CI NEWDELHI_DP NEWDELHI_POCI REUNION_LAT REUNION_LON REUNION_TYPE REUNION_WIND REUNION_PRES REUNION_TNUM REUNION_CI REUNION_RMW REUNION_R34_NE REUNION_R34_SE REUNION_R34_SW REUNION_R34_NW REUNION_R50_NE REUNION_R50_SE REUNION_R50_SW REUNION_R50_NW REUNION_R64_NE REUNION_R64_SE REUNION_R64_SW REUNION_R64_NW BOM_LAT BOM_LON BOM_TYPE BOM_WIND BOM_PRES BOM_TNUM BOM_CI BOM_RMW BOM_R34_NE BOM_R34_SE BOM_R34_SW BOM_R34_NW BOM_R50_NE BOM_R50_SE BOM_R50_SW BOM_R50_NW BOM_R64_NE BOM_R64_SE BOM_R64_SW BOM_R64_NW BOM_ROCI BOM_POCI BOM_EYE BOM_POS_METHOD BOM_PRES_METHOD NADI_LAT NADI_LON NADI_CAT NADI_WIND NADI_PRES WELLINGTON_LAT WELLINGTON_LON WELLINGTON_WIND WELLINGTON_PRES DS824_LAT DS824_LON DS824_STAGE DS824_WIND DS824_PRES TD9636_LAT TD9636_LON TD9636_STAGE TD9636_WIND TD9636_PRES TD9635_LAT TD9635_LON TD9635_WIND TD9635_PRES TD9635_ROCI NEUMANN_LAT NEUMANN_LON NEUMANN_CLASS NEUMANN_WIND NEUMANN_PRES MLC_LAT MLC_LON MLC_CLASS MLC_WIND MLC_PRES USA_GUST BOM_GUST BOM_GUST_PER REUNION_GUST REUNION_GUST_PER USA_SEAHGT USA_SEARAD_NE USA_SEARAD_SE USA_SEARAD_SW USA_SEARAD_NW STORM_SPEED STORM_DIR
1992297N26299 1992 115 NA NA FRANCES 1992-10-22 12:00:00 ET 26.3000 -60.8000 30 1009 hurdat_atl main 1011 1006 O_____________ hurdat_atl AL101992 26.3000 -60.8000 EX 30 1009 -4 5 305
1992297N26299 1992 115 NA NA FRANCES 1992-10-22 15:00:00 ET 26.4326 -61.0149 main 1011 1011 P_____________ AL101992 26.4326 -61.0149 EX 35 1006 -4 5 310
1992297N26299 1992 115 NA NA FRANCES 1992-10-22 18:00:00 ET 26.6000 -61.2000 40 1004 hurdat_atl main 1021 1021 O_____________ hurdat_atl AL101992 26.6000 -61.2000 EX 40 1004 -4 5 324
1992297N26299 1992 115 NA NA FRANCES 1992-10-22 21:00:00 ET 26.8275 -61.3300 main 1037 1037 P_____________ AL101992 26.8275 -61.3300 EX 45 1000 -4 5 340
1992297N26299 1992 115 NA NA FRANCES 1992-10-23 00:00:00 ET 27.1000 -61.4000 50 996 hurdat_atl main 1063 1063 O_____________ hurdat_atl AL101992 27.1000 -61.4000 EX 50 996 -4 6 352
1992297N26299 1992 115 NA NA FRANCES 1992-10-23 03:00:00 ET 27.3925 -61.4225 main 1093 1093 P_____________ AL101992 27.3925 -61.4225 EX 52 994 -4 6 1
1992297N26299 1992 115 NA NA FRANCES 1992-10-23 06:00:00 TS 27.7000 -61.4000 55 992 hurdat_atl main 1124 1124 O_____________ hurdat_atl AL101992 27.7000 -61.4000 TS 55 992 0 6 6
1992297N26299 1992 115 NA NA FRANCES 1992-10-23 09:00:00 TS 28.0150 -61.3650 main 1155 1155 P_____________ AL101992 28.0150 -61.3650 TS 57 991 0 6 8
1992297N26299 1992 115 NA NA FRANCES 1992-10-23 12:00:00 TS 28.3000 -61.3000 60 990 hurdat_atl main 1190 1190 O_____________ hurdat_atl AL101992 28.3000 -61.3000 TS 60 990 0 5 13
1992297N26299 1992 115 NA NA FRANCES 1992-10-23 15:00:00 TS 28.5224 -61.2299 main 1214 1214 P_____________ AL101992 28.5224 -61.2299 TS 62 988 0 4 24
1992297N26299 1992 115 NA NA FRANCES 1992-10-23 18:00:00 TS 28.7000 -61.1000 65 986 hurdat_atl main 1238 1238 O_____________ hurdat_atl AL101992 28.7000 -61.1000 HU 65 986 1 4 44
1992297N26299 1992 115 NA NA FRANCES 1992-10-23 21:00:00 TS 28.8350 -60.8872 main 1256 1256 P_____________ AL101992 28.8350 -60.8872 HU 65 982 1 5 56
1992297N26299 1992 115 NA NA FRANCES 1992-10-24 00:00:00 TS 29.0000 -60.6000 65 978 hurdat_atl main 1288 1288 O_____________ hurdat_atl AL101992 29.0000 -60.6000 HU 65 978 1 7 52
1992297N26299 1992 115 NA NA FRANCES 1992-10-24 03:00:00 TS 29.2472 -60.2944 main 1321 1321 P_____________ AL101992 29.2472 -60.2944 HU 67 977 1 9 45
1992297N26299 1992 115 NA NA FRANCES 1992-10-24 06:00:00 TS 29.6000 -59.9000 70 977 hurdat_atl main 1378 1378 O_____________ hurdat_atl AL101992 29.6000 -59.9000 HU 70 977 1 11 45
1992297N26299 1992 115 NA NA FRANCES 1992-10-24 09:00:00 TS 30.0323 -59.4016 main 1439 1439 P_____________ AL101992 30.0323 -59.4016 HU 72 976 1 14 44
1992297N26299 1992 115 NA NA FRANCES 1992-10-24 12:00:00 TS 30.6000 -58.8000 75 976 hurdat_atl main 1525 1498 O_____________ hurdat_atl AL101992 30.6000 -58.8000 HU 75 976 1 17 41
1992297N26299 1992 115 NA NA FRANCES 1992-10-24 15:00:00 TS 31.2977 -58.1076 main 1498 1444 P_____________ AL101992 31.2977 -58.1076 HU 75 976 1 19 39
1992297N26299 1992 115 NA NA FRANCES 1992-10-24 18:00:00 TS 32.1000 -57.4000 75 976 hurdat_atl main 1444 1391 O_____________ hurdat_atl AL101992 32.1000 -57.4000 HU 75 976 1 20 35
1992297N26299 1992 115 NA NA FRANCES 1992-10-24 21:00:00 TS 32.9194 -56.7907 main 1391 1339 P_____________ AL101992 32.9194 -56.7907 HU 72 977 1 20 31
1992297N26299 1992 115 NA NA FRANCES 1992-10-25 00:00:00 TS 33.8000 -56.2000 70 978 hurdat_atl main 1335 1257 O_____________ hurdat_atl AL101992 33.8000 -56.2000 HU 70 978 1 21 30
1992297N26299 1992 115 NA NA FRANCES 1992-10-25 03:00:00 TS 34.7274 -55.5492 main 1260 1185 P_____________ AL101992 34.7274 -55.5492 HU 67 979 1 22 29
1992297N26299 1992 115 NA NA FRANCES 1992-10-25 06:00:00 TS 35.7000 -54.9000 65 980 hurdat_atl main 1178 1112 O_____________ hurdat_atl AL101992 35.7000 -54.9000 HU 65 980 1 22 28
1992297N26299 1992 115 NA NA FRANCES 1992-10-25 09:00:00 TS 36.6998 -54.2766 main 1102 1001 P_____________ AL101992 36.6998 -54.2766 HU 65 981 1 22 26
1992297N26299 1992 115 NA NA FRANCES 1992-10-25 12:00:00 TS 37.7000 -53.7000 65 982 hurdat_atl main 989 889 O_____________ hurdat_atl AL101992 37.7000 -53.7000 HU 65 982 1 22 24
1992297N26299 1992 115 NA NA FRANCES 1992-10-25 15:00:00 TS 38.6645 -53.1831 main 878 790 P_____________ AL101992 38.6645 -53.1831 HU 62 982 0 21 22
1992297N26299 1992 115 NA NA FRANCES 1992-10-25 18:00:00 TS 39.6000 -52.7000 60 983 hurdat_atl main 779 682 O_____________ hurdat_atl AL101992 39.6000 -52.7000 TS 60 983 0 20 22
1992297N26299 1992 115 NA NA FRANCES 1992-10-25 21:00:00 TS 40.5067 -52.2345 main 682 599 P_____________ AL101992 40.5067 -52.2345 TS 60 984 0 20 23
1992297N26299 1992 115 NA NA FRANCES 1992-10-26 00:00:00 TS 41.4000 -51.7000 60 985 hurdat_atl main 590 508 O_____________ hurdat_atl AL101992 41.4000 -51.7000 TS 60 985 0 20 27
1992297N26299 1992 115 NA NA FRANCES 1992-10-26 03:00:00 TS 42.3150 -50.9947 main 508 445 P_____________ AL101992 42.3150 -50.9947 TS 60 985 0 21 32
1992297N26299 1992 115 NA NA FRANCES 1992-10-26 06:00:00 TS 43.2000 -50.2000 60 986 hurdat_atl main 445 408 O_____________ hurdat_atl AL101992 43.2000 -50.2000 TS 60 986 0 21 34
1992297N26299 1992 115 NA NA FRANCES 1992-10-26 09:00:00 TS 44.0444 -49.4136 main 413 400 P_____________ AL101992 44.0444 -49.4136 TS 60 986 0 20 36
1992297N26299 1992 115 NA NA FRANCES 1992-10-26 12:00:00 TS 44.8000 -48.6000 60 987 hurdat_atl main 405 405 O_____________ hurdat_atl AL101992 44.8000 -48.6000 TS 60 987 0 18 40
1992297N26299 1992 115 NA NA FRANCES 1992-10-26 15:00:00 TS 45.4440 -47.7772 main 428 428 P_____________ AL101992 45.4440 -47.7772 TS 57 987 0 17 45
1992297N26299 1992 115 NA NA FRANCES 1992-10-26 18:00:00 TS 46.0000 -46.9000 55 988 hurdat_atl main 463 463 O_____________ hurdat_atl AL101992 46.0000 -46.9000 TS 55 988 0 17 49
1992297N26299 1992 115 NA NA FRANCES 1992-10-26 21:00:00 TS 46.5443 -45.9369 main 517 515 P_____________ AL101992 46.5443 -45.9369 TS 55 988 0 17 54
1992297N26299 1992 115 NA NA FRANCES 1992-10-27 00:00:00 TS 47.0000 -44.9000 55 989 hurdat_atl main 581 581 O_____________ hurdat_atl AL101992 47.0000 -44.9000 TS 55 989 0 16 61
1992297N26299 1992 115 NA NA FRANCES 1992-10-27 03:00:00 TS 47.3432 -43.8502 main 651 651 P_____________ AL101992 47.3432 -43.8502 TS 52 990 0 16 68
1992297N26299 1992 115 NA NA FRANCES 1992-10-27 06:00:00 ET 47.6000 -42.7000 50 992 hurdat_atl main 739 739 O_____________ hurdat_atl AL101992 47.6000 -42.7000 EX 50 992 -4 17 73
1992297N26299 1992 115 NA NA FRANCES 1992-10-27 09:00:00 ET 47.8438 -41.4106 main 835 835 P_____________ AL101992 47.8438 -41.4106 EX 47 993 -4 18 78
1992297N26299 1992 115 NA NA FRANCES 1992-10-27 12:00:00 ET 48.0000 -40.0000 45 994 hurdat_atl main 938 938 O_____________ hurdat_atl AL101992 48.0000 -40.0000 EX 45 994 -4 19 85
1992297N26299 1992 115 NA NA FRANCES 1992-10-27 15:00:00 ET 48.0289 -38.5200 main 1049 1049 P_____________ AL101992 48.0289 -38.5200 EX 42 996 -4 20 90
1992297N26299 1992 115 NA NA FRANCES 1992-10-27 18:00:00 ET 48.0000 -37.0000 40 998 hurdat_atl main 1160 1160 O_____________ hurdat_atl AL101992 48.0000 -37.0000 EX 40 998 -4 20 90
1992297N26299 1992 115 NA NA FRANCES 1992-10-27 21:00:00 ET 48.0355 -35.5032 main 1271 1271 P_____________ AL101992 48.0355 -35.5032 EX 40 1000 -4 20 90
1992297N26299 1992 115 NA NA FRANCES 1992-10-28 00:00:00 ET 48.0000 -34.0000 40 1002 hurdat_atl main 1382 1382 O_____________ hurdat_atl AL101992 48.0000 -34.0000 EX 40 1002 -4 20 97
1992297N26299 1992 115 NA NA FRANCES 1992-10-28 03:00:00 ET 47.7839 -32.5361 main 1495 1495 P_____________ AL101992 47.7839 -32.5361 EX 37 1003 -4 21 104
1992297N26299 1992 115 NA NA FRANCES 1992-10-28 06:00:00 ET 47.5000 -31.0000 35 1004 hurdat_atl main 1544 1447 O_____________ hurdat_atl AL101992 47.5000 -31.0000 EX 35 1004 -4 22 103
1992297N26299 1992 115 NA NA FRANCES 1992-10-28 09:00:00 ET 47.2864 -29.2921 main 1440 1344 P_____________ AL101992 47.2864 -29.2921 EX 35 1003 -4 24 102
1992297N26299 1992 115 NA NA FRANCES 1992-10-28 12:00:00 ET 47.0000 -27.5000 35 1002 hurdat_atl main 1337 1257 O_____________ hurdat_atl AL101992 47.0000 -27.5000 EX 35 1002 -4 25 107
1992297N26299 1992 115 NA NA FRANCES 1992-10-28 15:00:00 ET 46.5329 -25.7879 main 1257 1183 P_____________ AL101992 46.5329 -25.7879 EX 35 1000 -4 26 113
1992297N26299 1992 115 NA NA FRANCES 1992-10-28 18:00:00 ET 46.0000 -24.0000 35 999 hurdat_atl main 1177 1059 O_____________ hurdat_atl AL101992 46.0000 -24.0000 EX 35 999 -4 28 112
1992297N26299 1992 115 NA NA FRANCES 1992-10-28 21:00:00 ET 45.4984 -22.0398 main 1044 888 P_____________ AL101992 45.4984 -22.0398 EX 37 999 -4 30 110
1992297N26299 1992 115 NA NA FRANCES 1992-10-29 00:00:00 ET 45.0000 -20.0000 40 999 hurdat_atl main 880 723 O_____________ hurdat_atl AL101992 45.0000 -20.0000 EX 40 999 -4 30 110
1992297N26299 1992 115 NA NA FRANCES 1992-10-29 03:00:00 ET 44.4591 -17.9996 main 715 557 P_____________ AL101992 44.4591 -17.9996 EX 37 1000 -4 30 109
1992297N26299 1992 115 NA NA FRANCES 1992-10-29 06:00:00 ET 44.0000 -16.0000 35 1001 hurdat_atl main 549 386 O_____________ hurdat_atl AL101992 44.0000 -16.0000 EX 35 1001 -4 30 104
1992297N26299 1992 115 NA NA FRANCES 1992-10-29 09:00:00 ET 43.7127 -13.9299 main 378 232 P_____________ AL101992 43.7127 -13.9299 EX 35 1001 -4 29 100
1992297N26299 1992 115 NA NA FRANCES 1992-10-29 12:00:00 ET 43.5000 -12.0000 35 1002 hurdat_atl main 224 91 O_____________ hurdat_atl AL101992 43.5000 -12.0000 EX 35 1002 -4 26 101
1992297N26299 1992 115 NA NA FRANCES 1992-10-29 15:00:00 ET 43.2099 -10.3497 main 83 0 P_____________ AL101992 43.2099 -10.3497 EX 32 1002 -4 22 103
1992297N26299 1992 115 NA NA FRANCES 1992-10-29 18:00:00 ET 43.0000 -9.00000 30 1003 hurdat_atl main 0 0 O_____________ hurdat_atl AL101992 43.0000 -9.00000 EX 30 1003 -4 18 98
1992297N26299 1992 115 NA NA FRANCES 1992-10-29 21:00:00 ET 42.9514 -7.92650 main 0 0 P_____________ AL101992 42.9514 -7.92650 EX 30 1002 -4 15 90
1992297N26299 1992 115 NA NA FRANCES 1992-10-30 00:00:00 ET 43.0000 -7.00000 30 1002 hurdat_atl main 0 O_____________ hurdat_atl AL101992 43.0000 -7.00000 EX 30 1002 -4 14 86

About IBTrACS Database

This database is a web-friendly format of International Best Track Archive for Climate Stewardship (IBTrACS), a global best track data archive curated by NOAA dating back to 1842.

Updated: 2021-10-21